createdAt,value
2023-04-23T00:02:02.905Z,19.97
2023-04-23T00:04:36.643Z,20.17
2023-04-23T00:07:05.511Z,20.90
2023-04-23T00:09:35.484Z,19.63
2023-04-23T00:12:04.387Z,19.60
2023-04-23T00:14:33.085Z,19.83
2023-04-23T00:17:01.495Z,19.13
2023-04-23T00:19:29.989Z,19.80
2023-04-23T00:21:58.511Z,17.70
2023-04-23T00:24:26.960Z,18.40
2023-04-23T00:26:56.807Z,18.37
2023-04-23T00:29:25.250Z,17.67
2023-04-23T00:31:53.712Z,18.13
2023-04-23T00:34:22.159Z,16.10
2023-04-23T00:36:50.788Z,17.27
2023-04-23T00:39:19.222Z,17.50
2023-04-23T00:41:48.329Z,16.50
2023-04-23T00:44:18.144Z,17.37
2023-04-23T00:46:46.996Z,16.77
2023-04-23T00:49:15.851Z,16.73
2023-04-23T00:51:44.304Z,16.97
2023-04-23T00:54:12.704Z,17.20
2023-04-23T00:56:41.183Z,16.50
2023-04-23T00:59:09.632Z,16.63
2023-04-23T01:01:39.504Z,16.53
2023-04-23T01:04:09.608Z,16.20
2023-04-23T01:06:38.280Z,16.97
2023-04-23T01:09:07.533Z,17.40
2023-04-23T01:11:36.011Z,17.17
2023-04-23T01:14:05.130Z,17.87
2023-04-23T01:16:33.569Z,17.00
2023-04-23T01:19:03.450Z,18.40
2023-04-23T01:21:32.478Z,17.37
2023-04-23T01:24:02.273Z,17.97
2023-04-23T01:26:30.795Z,18.17
2023-04-23T01:28:59.900Z,18.33
2023-04-23T01:31:28.449Z,18.00
2023-04-23T01:33:57.526Z,18.20
2023-04-23T01:36:27.130Z,18.70
2023-04-23T01:38:55.554Z,18.33
2023-04-23T01:41:25.527Z,19.50
2023-04-23T01:43:54.598Z,19.23
2023-04-23T01:46:23.136Z,19.53
2023-04-23T01:48:51.707Z,19.00
2023-04-23T01:51:20.104Z,19.80
2023-04-23T01:53:48.496Z,19.53
2023-04-23T01:56:17.962Z,20.87
2023-04-23T01:58:47.719Z,19.83
2023-04-23T02:01:16.168Z,20.90
2023-04-23T02:03:45.012Z,21.23
2023-04-23T02:06:13.767Z,21.80
2023-04-23T02:08:42.429Z,21.97
2023-04-23T02:11:10.902Z,22.47
2023-04-23T02:13:39.342Z,22.17
2023-04-23T02:16:09.471Z,23.23
2023-04-23T02:18:37.963Z,22.90
2023-04-23T02:21:06.491Z,24.07
2023-04-23T02:23:34.916Z,24.10
2023-04-23T02:26:03.376Z,25.33
2023-04-23T02:28:32.204Z,24.80
2023-04-23T02:31:00.636Z,24.73
2023-04-23T02:33:30.865Z,24.43
2023-04-23T02:35:59.270Z,24.00
2023-04-23T02:38:27.731Z,23.13
2023-04-23T02:40:56.534Z,23.33
2023-04-23T02:43:24.967Z,23.53
2023-04-23T02:45:53.373Z,23.70
2023-04-23T02:48:22.560Z,22.93
2023-04-23T02:50:52.391Z,22.47
2023-04-23T02:53:20.837Z,23.47
2023-04-23T02:55:49.300Z,24.60
2023-04-23T02:58:17.712Z,23.80
2023-04-23T03:00:46.263Z,23.93
2023-04-23T03:03:14.858Z,23.30
2023-04-23T03:05:43.330Z,23.33
2023-04-23T03:08:13.640Z,22.07
2023-04-23T03:10:42.064Z,21.63
2023-04-23T03:13:10.522Z,22.47
2023-04-23T03:15:38.949Z,22.50
2023-04-23T03:18:08.405Z,22.27
2023-04-23T03:20:36.822Z,22.80
2023-04-23T03:23:06.535Z,22.80
2023-04-23T03:25:36.415Z,22.10
2023-04-23T03:28:05.194Z,21.60
2023-04-23T03:30:34.232Z,21.80
2023-04-23T03:33:02.863Z,21.13
2023-04-23T03:35:31.287Z,20.10
2023-04-23T03:37:59.711Z,19.83
2023-04-23T03:40:28.460Z,19.27
2023-04-23T03:42:58.944Z,18.60
2023-04-23T03:45:27.547Z,18.70
2023-04-23T03:47:55.959Z,17.83
2023-04-23T03:50:24.436Z,18.93
2023-04-23T03:52:54.511Z,18.20
2023-04-23T03:55:23.027Z,18.33
2023-04-23T03:57:51.438Z,18.00
2023-04-23T04:00:21.607Z,19.40
2023-04-23T04:02:50.381Z,18.30
2023-04-23T04:05:19.072Z,18.67
2023-04-23T04:07:47.521Z,18.43
2023-04-23T04:10:16.029Z,18.93
2023-04-23T04:12:45.558Z,18.60
2023-04-23T04:15:13.976Z,17.63
2023-04-23T04:17:45.977Z,18.60
2023-04-23T04:20:14.633Z,17.23
2023-04-23T04:22:43.122Z,17.70
2023-04-23T04:25:12.386Z,18.20
2023-04-23T04:27:41.766Z,18.20
2023-04-23T04:30:10.886Z,17.47
2023-04-23T04:32:40.518Z,17.80
2023-04-23T04:35:12.860Z,17.20
2023-04-23T04:37:41.972Z,17.33
2023-04-23T04:40:11.528Z,17.67
2023-04-23T04:42:40.259Z,16.83
2023-04-23T04:45:10.383Z,18.53
2023-04-23T04:47:38.853Z,17.33
2023-04-23T04:50:08.055Z,17.60
2023-04-23T04:52:38.146Z,16.33
2023-04-23T04:55:07.198Z,18.30
2023-04-23T04:57:36.614Z,19.07
2023-04-23T05:00:22.496Z,18.73
2023-04-23T05:02:52.294Z,19.07
2023-04-23T05:05:21.405Z,18.67
2023-04-23T05:07:51.212Z,18.30
2023-04-23T05:10:19.616Z,19.60
2023-04-23T05:12:48.018Z,19.03
2023-04-23T05:15:17.175Z,19.30
2023-04-23T05:17:45.826Z,19.13
2023-04-23T05:20:14.431Z,20.73
2023-04-23T05:22:43.427Z,21.00
2023-04-23T05:25:13.972Z,21.00
2023-04-23T05:27:42.713Z,21.27
2023-04-23T05:30:12.308Z,24.23
2023-04-23T05:32:41.031Z,23.77
2023-04-23T05:35:09.832Z,23.43
2023-04-23T05:37:38.282Z,24.83
2023-04-23T05:40:07.934Z,23.60
2023-04-23T05:42:38.531Z,24.67
2023-04-23T05:45:09.033Z,23.53
2023-04-23T05:47:37.935Z,24.57
2023-04-23T05:50:06.927Z,23.53
2023-04-23T05:52:37.806Z,23.93
2023-04-23T05:55:06.736Z,24.57
2023-04-23T05:57:35.176Z,23.07
2023-04-23T06:00:06.542Z,23.83
2023-04-23T06:02:35.133Z,23.00
2023-04-23T06:05:03.886Z,22.17
2023-04-23T06:07:32.412Z,23.40
2023-04-23T06:10:01.007Z,23.23
2023-04-23T06:12:29.464Z,24.97
2023-04-23T06:14:57.906Z,24.80
2023-04-23T06:17:27.775Z,25.77
2023-04-23T06:19:56.385Z,25.33
2023-04-23T06:22:24.874Z,25.37
2023-04-23T06:24:53.282Z,26.77
2023-04-23T06:27:22.026Z,26.70
2023-04-23T06:29:50.544Z,26.17
2023-04-23T06:32:20.395Z,26.57
2023-04-23T06:35:00.678Z,27.70
2023-04-23T06:37:30.946Z,27.27
2023-04-23T06:40:00.168Z,28.67
2023-04-23T06:42:28.673Z,19.43
2023-04-23T06:44:57.116Z,11.07
2023-04-23T06:47:25.598Z,7.57
2023-04-23T06:49:55.507Z,7.63
2023-04-23T06:52:24.101Z,6.47
2023-04-23T06:54:52.500Z,6.47
2023-04-23T06:57:21.911Z,6.53
2023-04-23T06:59:50.400Z,6.43
2023-04-23T07:02:18.841Z,6.77
2023-04-23T07:04:47.766Z,7.20
2023-04-23T07:07:18.076Z,7.20
2023-04-23T07:09:46.493Z,7.00
2023-04-23T07:12:14.938Z,6.90
2023-04-23T07:14:43.709Z,6.55
2023-04-23T07:17:12.204Z,6.40
2023-04-23T07:19:40.601Z,6.45
2023-04-23T07:22:09.035Z,6.40
2023-04-23T07:24:38.986Z,5.93
2023-04-23T07:27:08.007Z,5.88
2023-04-23T07:29:36.466Z,6.22
2023-04-23T07:32:05.010Z,6.47
2023-04-23T07:34:34.513Z,6.05
2023-04-23T07:37:04.636Z,5.63
2023-04-23T07:39:33.039Z,5.65
2023-04-23T07:42:03.181Z,6.18
2023-04-23T07:44:31.682Z,6.38
2023-04-23T07:47:00.532Z,6.75
2023-04-23T07:49:28.943Z,7.45
2023-04-23T07:51:57.448Z,6.43
2023-04-23T07:54:25.903Z,6.75
2023-04-23T07:56:54.348Z,7.10
2023-04-23T07:59:24.233Z,7.47
2023-04-23T08:01:53.615Z,7.82
2023-04-23T08:04:22.257Z,7.63
2023-04-23T08:06:51.130Z,7.05
2023-04-23T08:09:19.543Z,7.85
2023-04-23T08:11:48.283Z,8.05
2023-04-23T08:14:16.776Z,7.90
2023-04-23T08:16:47.002Z,7.68
2023-04-23T08:19:15.399Z,7.47
2023-04-23T08:21:43.817Z,7.22
2023-04-23T08:24:12.220Z,8.48
2023-04-23T08:26:40.608Z,7.65
2023-04-23T08:29:10.986Z,7.28
2023-04-23T08:31:40.194Z,7.45
2023-04-23T08:34:10.170Z,6.88
2023-04-23T08:36:38.695Z,7.22
2023-04-23T08:39:07.134Z,7.05
2023-04-23T08:41:36.921Z,6.47
2023-04-23T08:44:08.287Z,6.68
2023-04-23T08:46:38.690Z,7.00
2023-04-23T08:49:10.141Z,5.88
2023-04-23T08:51:40.251Z,5.43
2023-04-23T08:54:11.597Z,5.78
2023-04-23T08:56:40.468Z,5.60
2023-04-23T08:59:08.936Z,5.25
2023-04-23T09:01:37.363Z,5.05
2023-04-23T09:04:07.470Z,5.78
2023-04-23T09:06:36.263Z,5.22
2023-04-23T09:09:07.355Z,5.47
2023-04-23T09:11:37.313Z,5.53
2023-04-23T09:14:06.144Z,5.15
2023-04-23T09:16:34.610Z,4.93
2023-04-23T09:19:03.571Z,5.55
2023-04-23T09:21:31.978Z,5.30
2023-04-23T09:24:00.834Z,5.15
2023-04-23T09:26:30.637Z,4.72
2023-04-23T09:28:59.164Z,4.97
2023-04-23T09:31:27.702Z,4.57
2023-04-23T09:33:56.512Z,4.90
2023-04-23T09:36:26.324Z,4.80
2023-04-23T09:38:58.333Z,4.85
2023-04-23T09:41:27.543Z,5.00
2023-04-23T09:43:57.591Z,4.82
2023-04-23T09:46:35.953Z,5.25
2023-04-23T09:49:06.137Z,4.60
2023-04-23T09:51:34.754Z,4.75
2023-04-23T09:54:04.324Z,5.28
2023-04-23T09:56:33.081Z,5.10
2023-04-23T09:59:02.915Z,4.97
2023-04-23T10:01:31.837Z,5.10
2023-04-23T10:04:00.477Z,4.28
2023-04-23T10:09:05.398Z,4.40
2023-04-23T10:11:33.793Z,4.72
2023-04-23T10:14:03.977Z,4.53
2023-04-23T10:16:42.144Z,4.68
2023-04-23T10:19:19.111Z,4.78
2023-04-23T10:21:54.900Z,5.22
2023-04-23T10:24:28.708Z,4.90
2023-04-23T10:26:59.817Z,4.70
2023-04-23T10:29:32.427Z,4.45
2023-04-23T10:32:02.095Z,4.50
2023-04-23T10:34:31.586Z,4.95
2023-04-23T10:37:00.661Z,4.70
2023-04-23T10:39:30.544Z,4.43
2023-04-23T10:41:59.380Z,4.63
2023-04-23T10:44:56.628Z,4.60
2023-04-23T10:47:23.894Z,4.35
2023-04-23T10:49:52.943Z,5.90
2023-04-23T10:52:23.806Z,5.38
2023-04-23T10:54:59.890Z,5.60
2023-04-23T10:57:28.663Z,6.32
2023-04-23T10:59:59.112Z,5.82
2023-04-23T11:02:27.897Z,6.10
2023-04-23T11:04:57.699Z,6.10
2023-04-23T11:07:28.204Z,5.70
2023-04-23T11:09:57.726Z,6.70
2023-04-23T11:12:34.996Z,6.28
2023-04-23T11:15:14.136Z,5.90
2023-04-23T11:18:02.779Z,6.05
2023-04-23T11:20:31.278Z,5.93
2023-04-23T11:22:59.777Z,8.45
2023-04-23T11:25:30.276Z,8.23
2023-04-23T11:27:59.621Z,7.40
2023-04-23T11:30:30.280Z,7.60
2023-04-23T11:33:00.152Z,6.93
2023-04-23T11:35:30.569Z,6.35
2023-04-23T11:37:59.127Z,6.38
2023-04-23T11:40:31.107Z,5.65
2023-04-23T11:42:59.563Z,5.10
2023-04-23T11:45:30.197Z,5.05
2023-04-23T11:47:59.660Z,4.90
2023-04-23T11:50:29.748Z,5.18
2023-04-23T11:52:58.580Z,5.60
2023-04-23T11:55:27.100Z,5.63
2023-04-23T11:57:55.517Z,5.65
2023-04-23T12:00:25.137Z,5.22
2023-04-23T12:02:55.958Z,5.63
2023-04-23T12:05:24.873Z,5.30
2023-04-23T12:07:53.517Z,5.22
2023-04-23T12:10:22.203Z,5.40
2023-04-23T12:12:54.214Z,4.97
2023-04-23T12:15:22.805Z,4.88
2023-04-23T12:17:52.269Z,4.85
2023-04-23T12:20:22.692Z,5.32
2023-04-23T12:22:51.127Z,5.43
2023-04-23T12:25:24.636Z,4.85
2023-04-23T12:27:53.180Z,5.00
2023-04-23T12:30:22.041Z,5.68
2023-04-23T12:32:50.650Z,5.03
2023-04-23T12:35:19.271Z,5.10
2023-04-23T12:37:49.062Z,5.50
2023-04-23T12:40:17.640Z,5.05
2023-04-23T12:42:46.095Z,5.47
2023-04-23T12:45:14.612Z,5.70
2023-04-23T12:47:43.085Z,6.50
2023-04-23T12:50:12.054Z,5.75
2023-04-23T12:52:40.560Z,5.30
2023-04-23T12:55:11.107Z,5.75
2023-04-23T12:57:39.562Z,6.07
2023-04-23T13:00:09.018Z,6.05
2023-04-23T13:02:37.629Z,5.70
2023-04-23T13:05:06.617Z,5.88
2023-04-23T13:07:35.184Z,5.60
2023-04-23T13:10:03.647Z,5.80
2023-04-23T13:12:33.438Z,6.22
2023-04-23T13:15:01.853Z,5.90
2023-04-23T13:17:30.788Z,6.25
2023-04-23T13:19:59.317Z,5.88
2023-04-23T13:22:29.986Z,5.70
2023-04-23T13:24:58.459Z,6.28
2023-04-23T13:27:27.203Z,5.93
2023-04-23T13:29:57.155Z,6.05
2023-04-23T13:32:27.463Z,6.07
2023-04-23T13:34:56.530Z,6.00
2023-04-23T13:37:26.533Z,6.68
2023-04-23T13:39:55.039Z,6.65
2023-04-23T13:42:23.648Z,6.20
2023-04-23T13:44:52.545Z,6.82
2023-04-23T13:47:22.435Z,6.57
2023-04-23T13:49:51.374Z,7.28
2023-04-23T13:52:19.953Z,7.43
2023-04-23T13:54:50.541Z,6.60
2023-04-23T13:57:18.958Z,7.40
2023-04-23T13:59:47.379Z,7.85
2023-04-23T14:02:15.878Z,7.20
2023-04-23T14:04:45.746Z,7.18
2023-04-23T14:07:14.209Z,6.43
2023-04-23T14:09:42.804Z,6.75
2023-04-23T14:12:11.640Z,6.20
2023-04-23T14:14:40.214Z,6.63
2023-04-23T14:17:08.684Z,6.95
2023-04-23T14:19:37.966Z,6.93
2023-04-23T14:22:07.783Z,6.85
2023-04-23T14:24:36.682Z,6.60
2023-04-23T14:27:05.885Z,7.05
2023-04-23T14:29:37.859Z,7.35
2023-04-23T14:32:06.439Z,6.82
2023-04-23T14:34:35.763Z,6.57
2023-04-23T14:37:04.614Z,6.22
2023-04-23T14:39:35.349Z,6.60
2023-04-23T14:42:03.819Z,6.22
2023-04-23T14:44:32.250Z,6.47
2023-04-23T14:47:00.863Z,7.20
2023-04-23T14:49:29.329Z,7.80
2023-04-23T14:51:58.199Z,7.40
2023-04-23T14:54:26.718Z,7.88
2023-04-23T14:56:56.538Z,7.70
2023-04-23T14:59:25.032Z,7.45
2023-04-23T15:01:53.599Z,7.88
2023-04-23T15:04:22.231Z,7.68
2023-04-23T15:06:50.809Z,6.60
2023-04-23T15:09:19.211Z,7.25
2023-04-23T15:11:47.615Z,7.78
2023-04-23T15:14:22.586Z,8.82
2023-04-23T15:16:51.037Z,8.05
2023-04-23T15:19:19.897Z,7.55
2023-04-23T15:21:48.466Z,7.45
2023-04-23T15:24:17.162Z,7.75
2023-04-23T15:26:46.773Z,7.47
2023-04-23T15:29:15.248Z,7.07
2023-04-23T15:31:45.151Z,7.95
2023-04-23T15:34:13.576Z,6.82
2023-04-23T15:36:42.032Z,7.10
2023-04-23T15:39:10.888Z,7.72
2023-04-23T15:41:41.178Z,8.05
2023-04-23T15:44:13.689Z,6.75
2023-04-23T15:46:42.100Z,7.50
2023-04-23T15:49:11.937Z,7.25
2023-04-23T15:51:40.664Z,8.05
2023-04-23T15:54:09.167Z,7.65
2023-04-23T15:56:37.758Z,6.93
2023-04-23T15:59:06.410Z,7.32
2023-04-23T16:01:34.967Z,6.88
2023-04-23T16:06:36.146Z,6.43
2023-04-23T16:09:07.261Z,6.55
2023-04-23T16:11:36.038Z,6.85
2023-04-23T16:14:05.005Z,6.82
2023-04-23T16:16:33.479Z,6.88
2023-04-23T16:19:02.661Z,6.97
2023-04-23T16:21:31.296Z,6.80
2023-04-23T16:24:01.274Z,7.03
2023-04-23T16:26:29.930Z,7.68
2023-04-23T16:29:06.257Z,7.28
2023-04-23T16:31:46.162Z,6.72
2023-04-23T16:34:14.605Z,7.00
2023-04-23T16:36:43.118Z,7.47
2023-04-23T16:39:12.912Z,7.72
2023-04-23T16:41:41.399Z,6.88
2023-04-23T16:44:09.975Z,7.25
2023-04-23T16:46:38.631Z,7.57
2023-04-23T16:49:07.232Z,7.60
2023-04-23T16:51:35.709Z,7.57
2023-04-23T16:54:04.118Z,7.75
2023-04-23T16:56:34.082Z,8.50
2023-04-23T16:59:02.807Z,9.45
2023-04-23T17:01:31.238Z,10.18
2023-04-23T17:03:59.881Z,10.50
2023-04-23T17:06:28.907Z,9.95
2023-04-23T17:08:58.728Z,10.73
2023-04-23T17:11:27.558Z,11.40
2023-04-23T17:13:57.554Z,11.95
2023-04-23T17:16:27.200Z,11.43
2023-04-23T17:18:55.820Z,11.90
2023-04-23T17:21:24.340Z,12.00
2023-04-23T17:23:52.801Z,11.73
2023-04-23T17:26:21.361Z,11.68
2023-04-23T17:28:50.008Z,13.43
2023-04-23T17:31:20.038Z,12.73
2023-04-23T17:33:49.657Z,12.27
2023-04-23T17:36:18.208Z,13.25
2023-04-23T17:38:46.664Z,13.27
2023-04-23T17:41:15.135Z,12.25
2023-04-23T17:43:43.525Z,13.15
2023-04-23T17:46:11.982Z,13.10
2023-04-23T17:48:41.891Z,12.88
2023-04-23T17:51:10.307Z,13.15
2023-04-23T17:53:38.754Z,13.07
2023-04-23T17:56:07.510Z,13.48
2023-04-23T17:58:36.141Z,13.35
2023-04-23T18:01:06.575Z,13.27
2023-04-23T18:03:35.354Z,13.52
2023-04-23T18:06:05.367Z,13.18
2023-04-23T18:08:33.794Z,13.63
2023-04-23T18:11:02.270Z,13.85
2023-04-23T18:13:30.727Z,14.43
2023-04-23T18:15:59.186Z,14.75
2023-04-23T18:18:27.636Z,14.25
2023-04-23T18:20:56.061Z,14.48
2023-04-23T18:23:26.292Z,13.82
2023-04-23T18:25:54.970Z,13.93
2023-04-23T18:28:24.280Z,13.85
2023-04-23T18:30:54.125Z,13.90
2023-04-23T18:33:27.532Z,12.65
2023-04-23T18:35:59.369Z,13.85
2023-04-23T18:38:32.834Z,13.52
2023-04-23T18:41:04.454Z,15.35
2023-04-23T18:43:34.167Z,15.38
2023-04-23T18:46:02.784Z,15.70
2023-04-23T18:48:46.106Z,15.45
2023-04-23T18:51:22.893Z,15.10
2023-04-23T18:53:52.772Z,14.57
2023-04-23T18:56:21.193Z,14.43
2023-04-23T18:58:49.597Z,14.40
2023-04-23T19:01:18.887Z,14.30
2023-04-23T19:03:47.408Z,13.68
2023-04-23T19:06:16.426Z,13.90
2023-04-23T19:08:44.848Z,13.15
2023-04-23T19:11:14.744Z,12.68
2023-04-23T19:13:43.143Z,13.18
2023-04-23T19:16:11.781Z,13.45
2023-04-23T19:18:40.299Z,13.23
2023-04-23T19:21:09.350Z,13.70
2023-04-23T19:23:37.812Z,12.77
2023-04-23T19:26:07.323Z,12.98
2023-04-23T19:28:37.978Z,13.02
2023-04-23T19:31:06.658Z,13.35
2023-04-23T19:33:35.150Z,12.90
2023-04-23T19:36:03.555Z,13.60
2023-04-23T19:38:32.022Z,12.75
2023-04-23T19:41:00.442Z,13.85
2023-04-23T19:43:28.903Z,13.43
2023-04-23T19:45:58.720Z,13.52
2023-04-23T19:48:27.137Z,13.45
2023-04-23T19:50:55.947Z,14.40
2023-04-23T19:53:24.386Z,13.90
2023-04-23T19:55:52.797Z,13.73
2023-04-23T19:58:21.255Z,13.95
2023-04-23T20:00:49.680Z,13.40
2023-04-23T20:03:19.825Z,13.50
2023-04-23T20:05:49.969Z,13.53
2023-04-23T20:08:26.154Z,13.13
2023-04-23T20:10:54.811Z,13.50
2023-04-23T20:13:23.802Z,13.10
2023-04-23T20:15:53.753Z,12.23
2023-04-23T20:18:25.570Z,13.35
2023-04-23T20:20:54.126Z,13.13
2023-04-23T20:23:22.581Z,13.47
2023-04-23T20:25:51.079Z,13.23
2023-04-23T20:28:19.598Z,13.23
2023-04-23T20:30:48.092Z,12.98
2023-04-23T20:33:18.802Z,14.43
2023-04-23T20:35:48.697Z,12.90
2023-04-23T20:38:19.309Z,13.07
2023-04-23T20:40:47.837Z,13.77
2023-04-23T20:43:16.507Z,13.98
2023-04-23T20:45:46.723Z,13.17
2023-04-23T20:48:15.509Z,13.83
2023-04-23T20:50:43.944Z,13.95
2023-04-23T20:53:14.345Z,12.63
2023-04-23T20:55:42.821Z,12.90
2023-04-23T20:58:11.274Z,13.02
2023-04-23T21:00:39.808Z,13.03
2023-04-23T21:03:08.400Z,12.90
2023-04-23T21:05:38.266Z,12.97
2023-04-23T21:08:07.030Z,12.43
2023-04-23T21:10:36.859Z,12.55
2023-04-23T21:13:05.361Z,11.97
2023-04-23T21:15:35.287Z,12.20
2023-04-23T21:18:04.153Z,11.23
2023-04-23T21:20:32.680Z,11.90
2023-04-23T21:23:01.104Z,12.07
2023-04-23T21:25:29.609Z,12.23
2023-04-23T21:28:00.286Z,11.43
2023-04-23T21:30:31.839Z,11.88
2023-04-23T21:33:00.347Z,11.73
2023-04-23T21:35:28.778Z,12.10
2023-04-23T21:37:57.281Z,10.75
2023-04-23T21:40:25.756Z,11.47
2023-04-23T21:42:54.190Z,11.63
2023-04-23T21:45:24.075Z,10.97
2023-04-23T21:47:52.485Z,11.10
2023-04-23T21:50:21.182Z,11.37
2023-04-23T21:52:52.548Z,11.00
2023-04-23T21:55:21.047Z,10.97
2023-04-23T21:57:49.557Z,10.70
2023-04-23T22:00:18.804Z,11.23
2023-04-23T22:02:48.938Z,10.15
2023-04-23T22:05:20.136Z,10.70
2023-04-23T22:07:49.213Z,10.77
2023-04-23T22:10:18.453Z,10.60
2023-04-23T22:12:47.521Z,10.52
2023-04-23T22:15:16.693Z,10.43
2023-04-23T22:17:48.348Z,9.70
2023-04-23T22:20:19.006Z,9.27
2023-04-23T22:22:47.473Z,9.77
2023-04-23T22:25:17.389Z,9.90
2023-04-23T22:27:45.908Z,10.17
2023-04-23T22:30:15.385Z,9.67
2023-04-23T22:32:43.906Z,9.43
2023-04-23T22:35:12.327Z,9.80
2023-04-23T22:37:42.106Z,9.38
2023-04-23T22:40:11.234Z,9.85
2023-04-23T22:42:39.642Z,10.97
2023-04-23T22:45:08.598Z,10.07
2023-04-23T22:47:37.117Z,10.65
2023-04-23T22:50:05.755Z,11.38
2023-04-23T22:52:34.182Z,11.05
2023-04-23T22:55:04.004Z,11.75
2023-04-23T22:57:32.439Z,12.27
2023-04-23T23:00:01.806Z,13.05
2023-04-23T23:02:30.556Z,13.82
2023-04-23T23:04:59.067Z,13.33
2023-04-23T23:07:27.490Z,15.10
2023-04-23T23:09:56.585Z,15.32
2023-04-23T23:12:26.416Z,15.10
2023-04-23T23:14:54.863Z,15.50
2023-04-23T23:17:23.402Z,15.67
2023-04-23T23:19:51.848Z,14.30
2023-04-23T23:22:20.373Z,14.17
2023-04-23T23:24:48.809Z,14.30
2023-04-23T23:27:17.272Z,15.67
2023-04-23T23:29:47.238Z,15.60
2023-04-23T23:32:15.771Z,15.43
2023-04-23T23:34:44.265Z,14.90
2023-04-23T23:37:12.683Z,15.63
2023-04-23T23:39:41.302Z,16.00
2023-04-23T23:42:09.874Z,16.93
2023-04-23T23:44:38.278Z,16.33
2023-04-23T23:47:08.182Z,16.27
2023-04-23T23:49:36.783Z,16.20
2023-04-23T23:52:05.259Z,15.07
2023-04-23T23:54:33.682Z,14.93
2023-04-23T23:57:02.058Z,15.90
2023-04-23T23:59:30.631Z,15.23
